sensor_id;sensor_type;location;lat;lon;timestamp;temperature;humidity
7204;DHT22;3643;52.460;13.322;2024-03-08T00:00:16;1.80;99.90
7204;DHT22;3643;52.460;13.322;2024-03-08T00:02:46;1.80;99.90
7204;DHT22;3643;52.460;13.322;2024-03-08T00:05:15;1.80;99.90
7204;DHT22;3643;52.460;13.322;2024-03-08T00:07:44;1.80;99.90
7204;DHT22;3643;52.460;13.322;2024-03-08T00:10:13;1.80;99.90
7204;DHT22;3643;52.460;13.322;2024-03-08T00:12:43;1.70;99.90
7204;DHT22;3643;52.460;13.322;2024-03-08T00:15:14;1.70;99.90
7204;DHT22;3643;52.460;13.322;2024-03-08T00:17:45;1.70;99.90
7204;DHT22;3643;52.460;13.322;2024-03-08T00:20:15;1.80;99.90
7204;DHT22;3643;52.460;13.322;2024-03-08T00:22:45;1.70;99.90
7204;DHT22;3643;52.460;13.322;2024-03-08T00:25:14;1.70;99.90
7204;DHT22;3643;52.460;13.322;2024-03-08T00:27:43;1.60;99.90
7204;DHT22;3643;52.460;13.322;2024-03-08T00:30:11;1.60;99.90
7204;DHT22;3643;52.460;13.322;2024-03-08T00:32:42;1.50;99.90
7204;DHT22;3643;52.460;13.322;2024-03-08T00:35:10;1.50;99.90
7204;DHT22;3643;52.460;13.322;2024-03-08T00:37:39;1.60;99.90
7204;DHT22;3643;52.460;13.322;2024-03-08T00:40:09;1.60;99.90
7204;DHT22;3643;52.460;13.322;2024-03-08T00:42:37;1.60;99.90
7204;DHT22;3643;52.460;13.322;2024-03-08T00:45:08;1.60;99.90
7204;DHT22;3643;52.460;13.322;2024-03-08T00:47:37;1.50;99.90
7204;DHT22;3643;52.460;13.322;2024-03-08T00:50:07;1.50;99.90
7204;DHT22;3643;52.460;13.322;2024-03-08T00:52:36;1.50;99.90
7204;DHT22;3643;52.460;13.322;2024-03-08T00:55:04;1.50;99.90
7204;DHT22;3643;52.460;13.322;2024-03-08T00:57:33;1.40;99.90
7204;DHT22;3643;52.460;13.322;2024-03-08T01:00:03;1.40;99.90
7204;DHT22;3643;52.460;13.322;2024-03-08T01:02:36;1.40;99.90
7204;DHT22;3643;52.460;13.322;2024-03-08T01:05:05;1.40;99.90
7204;DHT22;3643;52.460;13.322;2024-03-08T01:07:35;1.40;99.90
7204;DHT22;3643;52.460;13.322;2024-03-08T01:10:04;1.40;99.90
7204;DHT22;3643;52.460;13.322;2024-03-08T01:12:36;1.40;99.90
7204;DHT22;3643;52.460;13.322;2024-03-08T01:15:05;1.40;99.90
7204;DHT22;3643;52.460;13.322;2024-03-08T01:17:33;1.40;99.90
7204;DHT22;3643;52.460;13.322;2024-03-08T01:20:02;1.40;99.90
7204;DHT22;3643;52.460;13.322;2024-03-08T01:22:30;1.30;99.90
7204;DHT22;3643;52.460;13.322;2024-03-08T01:24:59;1.30;99.90
7204;DHT22;3643;52.460;13.322;2024-03-08T01:27:27;1.30;99.90
7204;DHT22;3643;52.460;13.322;2024-03-08T01:29:55;1.30;99.90
7204;DHT22;3643;52.460;13.322;2024-03-08T01:32:23;1.20;99.90
7204;DHT22;3643;52.460;13.322;2024-03-08T01:34:52;1.20;99.90
7204;DHT22;3643;52.460;13.322;2024-03-08T01:37:20;1.30;99.90
7204;DHT22;3643;52.460;13.322;2024-03-08T01:39:48;1.20;99.90
7204;DHT22;3643;52.460;13.322;2024-03-08T01:42:17;1.20;99.90
7204;DHT22;3643;52.460;13.322;2024-03-08T01:44:45;1.20;99.90
7204;DHT22;3643;52.460;13.322;2024-03-08T01:47:13;1.20;99.90
7204;DHT22;3643;52.460;13.322;2024-03-08T01:49:41;1.20;99.90
7204;DHT22;3643;52.460;13.322;2024-03-08T01:52:09;1.20;99.90
7204;DHT22;3643;52.460;13.322;2024-03-08T01:54:38;1.10;99.90
7204;DHT22;3643;52.460;13.322;2024-03-08T01:57:07;1.10;99.90
7204;DHT22;3643;52.460;13.322;2024-03-08T01:59:37;1.10;99.90
7204;DHT22;3643;52.460;13.322;2024-03-08T02:02:06;1.10;99.90
7204;DHT22;3643;52.460;13.322;2024-03-08T02:04:37;1.10;99.90
7204;DHT22;3643;52.460;13.322;2024-03-08T02:07:05;1.10;99.90
7204;DHT22;3643;52.460;13.322;2024-03-08T02:09:37;1.10;99.90
7204;DHT22;3643;52.460;13.322;2024-03-08T02:12:07;1.10;99.90
7204;DHT22;3643;52.460;13.322;2024-03-08T02:14:37;1.10;99.90
7204;DHT22;3643;52.460;13.322;2024-03-08T02:17:07;1.30;99.90
7204;DHT22;3643;52.460;13.322;2024-03-08T02:19:35;1.10;99.90
7204;DHT22;3643;52.460;13.322;2024-03-08T02:22:05;1.10;99.90
7204;DHT22;3643;52.460;13.322;2024-03-08T02:24:33;1.10;99.90
7204;DHT22;3643;52.460;13.322;2024-03-08T02:27:02;1.10;99.90
7204;DHT22;3643;52.460;13.322;2024-03-08T02:29:31;1.10;99.90
7204;DHT22;3643;52.460;13.322;2024-03-08T02:32:01;1.10;99.90
7204;DHT22;3643;52.460;13.322;2024-03-08T02:34:29;1.10;99.90
7204;DHT22;3643;52.460;13.322;2024-03-08T02:36:58;1.10;99.90
7204;DHT22;3643;52.460;13.322;2024-03-08T02:39:27;1.10;99.90
7204;DHT22;3643;52.460;13.322;2024-03-08T02:41:55;1.20;99.90
7204;DHT22;3643;52.460;13.322;2024-03-08T02:44:23;1.10;99.90
7204;DHT22;3643;52.460;13.322;2024-03-08T02:46:51;1.10;99.90
7204;DHT22;3643;52.460;13.322;2024-03-08T02:49:22;1.00;99.90
7204;DHT22;3643;52.460;13.322;2024-03-08T02:51:50;1.00;99.90
7204;DHT22;3643;52.460;13.322;2024-03-08T02:54:18;1.00;99.90
7204;DHT22;3643;52.460;13.322;2024-03-08T02:56:47;1.20;99.90
7204;DHT22;3643;52.460;13.322;2024-03-08T02:59:17;1.00;99.90
7204;DHT22;3643;52.460;13.322;2024-03-08T03:01:45;1.00;99.90
7204;DHT22;3643;52.460;13.322;2024-03-08T03:04:13;1.00;99.90
7204;DHT22;3643;52.460;13.322;2024-03-08T03:06:41;1.00;99.90
7204;DHT22;3643;52.460;13.322;2024-03-08T03:09:09;1.00;99.90
7204;DHT22;3643;52.460;13.322;2024-03-08T03:11:38;1.00;99.90
7204;DHT22;3643;52.460;13.322;2024-03-08T03:14:08;1.00;99.90
7204;DHT22;3643;52.460;13.322;2024-03-08T03:16:36;0.90;99.90
7204;DHT22;3643;52.460;13.322;2024-03-08T03:19:04;0.90;99.90
7204;DHT22;3643;52.460;13.322;2024-03-08T03:21:32;0.80;99.90
7204;DHT22;3643;52.460;13.322;2024-03-08T03:24:02;0.80;99.90
7204;DHT22;3643;52.460;13.322;2024-03-08T03:26:31;0.80;99.90
7204;DHT22;3643;52.460;13.322;2024-03-08T03:28:59;0.70;99.90
7204;DHT22;3643;52.460;13.322;2024-03-08T03:31:31;0.70;99.90
7204;DHT22;3643;52.460;13.322;2024-03-08T03:33:59;0.70;99.90
7204;DHT22;3643;52.460;13.322;2024-03-08T03:36:29;0.70;99.90
7204;DHT22;3643;52.460;13.322;2024-03-08T03:38:58;0.70;99.90
7204;DHT22;3643;52.460;13.322;2024-03-08T03:41:37;0.80;99.90
7204;DHT22;3643;52.460;13.322;2024-03-08T03:44:05;0.70;99.90
7204;DHT22;3643;52.460;13.322;2024-03-08T03:46:35;0.70;99.90
7204;DHT22;3643;52.460;13.322;2024-03-08T03:49:03;0.60;99.90
7204;DHT22;3643;52.460;13.322;2024-03-08T03:51:31;0.60;99.90
7204;DHT22;3643;52.460;13.322;2024-03-08T03:53:59;0.70;99.90
7204;DHT22;3643;52.460;13.322;2024-03-08T03:56:27;0.60;99.90
7204;DHT22;3643;52.460;13.322;2024-03-08T03:58:55;0.60;99.90
7204;DHT22;3643;52.460;13.322;2024-03-08T04:01:23;0.60;99.90
7204;DHT22;3643;52.460;13.322;2024-03-08T04:03:52;0.60;99.90
7204;DHT22;3643;52.460;13.322;2024-03-08T04:06:20;0.60;99.90
7204;DHT22;3643;52.460;13.322;2024-03-08T04:08:49;0.50;99.90
7204;DHT22;3643;52.460;13.322;2024-03-08T04:11:17;0.50;99.90
7204;DHT22;3643;52.460;13.322;2024-03-08T04:13:45;0.50;99.90
7204;DHT22;3643;52.460;13.322;2024-03-08T04:16:13;0.50;99.90
7204;DHT22;3643;52.460;13.322;2024-03-08T04:18:41;0.50;99.90
7204;DHT22;3643;52.460;13.322;2024-03-08T04:21:11;0.50;99.90
7204;DHT22;3643;52.460;13.322;2024-03-08T04:23:40;0.50;99.90
7204;DHT22;3643;52.460;13.322;2024-03-08T04:26:08;0.50;99.90
7204;DHT22;3643;52.460;13.322;2024-03-08T04:28:36;0.70;99.90
7204;DHT22;3643;52.460;13.322;2024-03-08T04:31:06;0.50;99.90
7204;DHT22;3643;52.460;13.322;2024-03-08T04:33:34;0.40;99.90
7204;DHT22;3643;52.460;13.322;2024-03-08T04:36:03;0.40;99.90
7204;DHT22;3643;52.460;13.322;2024-03-08T04:38:33;0.40;99.90
7204;DHT22;3643;52.460;13.322;2024-03-08T04:41:01;0.40;99.90
7204;DHT22;3643;52.460;13.322;2024-03-08T04:43:30;0.40;99.90
7204;DHT22;3643;52.460;13.322;2024-03-08T04:45:58;0.30;99.90
7204;DHT22;3643;52.460;13.322;2024-03-08T04:48:26;0.30;99.90
7204;DHT22;3643;52.460;13.322;2024-03-08T04:50:54;0.30;99.90
7204;DHT22;3643;52.460;13.322;2024-03-08T04:53:22;0.30;99.90
7204;DHT22;3643;52.460;13.322;2024-03-08T04:55:52;0.30;99.90
7204;DHT22;3643;52.460;13.322;2024-03-08T04:58:20;0.20;99.90
7204;DHT22;3643;52.460;13.322;2024-03-08T05:00:48;0.20;99.90
7204;DHT22;3643;52.460;13.322;2024-03-08T05:03:17;0.40;99.90
7204;DHT22;3643;52.460;13.322;2024-03-08T05:05:45;0.20;99.90
7204;DHT22;3643;52.460;13.322;2024-03-08T05:08:13;0.20;99.90
7204;DHT22;3643;52.460;13.322;2024-03-08T05:10:42;0.20;99.90
7204;DHT22;3643;52.460;13.322;2024-03-08T05:13:11;0.20;99.90
7204;DHT22;3643;52.460;13.322;2024-03-08T05:15:39;0.20;99.90
7204;DHT22;3643;52.460;13.322;2024-03-08T05:18:07;0.30;99.90
7204;DHT22;3643;52.460;13.322;2024-03-08T05:20:38;0.20;99.90
7204;DHT22;3643;52.460;13.322;2024-03-08T05:23:06;0.10;99.90
7204;DHT22;3643;52.460;13.322;2024-03-08T05:25:35;0.10;99.90
7204;DHT22;3643;52.460;13.322;2024-03-08T05:28:03;0.10;99.90
7204;DHT22;3643;52.460;13.322;2024-03-08T05:30:32;0.10;99.90
7204;DHT22;3643;52.460;13.322;2024-03-08T05:33:03;0.10;99.90
7204;DHT22;3643;52.460;13.322;2024-03-08T05:35:31;0.10;99.90
7204;DHT22;3643;52.460;13.322;2024-03-08T05:37:59;0.10;99.90
7204;DHT22;3643;52.460;13.322;2024-03-08T05:40:27;0.10;99.90
7204;DHT22;3643;52.460;13.322;2024-03-08T05:42:58;0.00;99.90
7204;DHT22;3643;52.460;13.322;2024-03-08T05:45:26;0.00;99.90
7204;DHT22;3643;52.460;13.322;2024-03-08T05:47:56;0.00;99.90
7204;DHT22;3643;52.460;13.322;2024-03-08T05:50:24;0.10;99.90
7204;DHT22;3643;52.460;13.322;2024-03-08T05:52:54;0.00;99.90
7204;DHT22;3643;52.460;13.322;2024-03-08T05:55:21;0.10;99.90
7204;DHT22;3643;52.460;13.322;2024-03-08T05:57:51;0.10;99.90
7204;DHT22;3643;52.460;13.322;2024-03-08T06:00:20;0.10;99.90
7204;DHT22;3643;52.460;13.322;2024-03-08T06:02:49;0.10;99.90
7204;DHT22;3643;52.460;13.322;2024-03-08T06:05:18;0.20;99.90
7204;DHT22;3643;52.460;13.322;2024-03-08T06:07:46;0.20;99.90
7204;DHT22;3643;52.460;13.322;2024-03-08T06:10:14;0.20;99.90
7204;DHT22;3643;52.460;13.322;2024-03-08T06:12:44;0.20;99.90
7204;DHT22;3643;52.460;13.322;2024-03-08T06:15:12;0.20;99.90
7204;DHT22;3643;52.460;13.322;2024-03-08T06:17:42;0.20;99.90
7204;DHT22;3643;52.460;13.322;2024-03-08T06:20:11;0.30;99.90
7204;DHT22;3643;52.460;13.322;2024-03-08T06:22:41;0.30;99.90
7204;DHT22;3643;52.460;13.322;2024-03-08T06:25:11;0.40;99.90
7204;DHT22;3643;52.460;13.322;2024-03-08T06:27:40;0.60;99.90
7204;DHT22;3643;52.460;13.322;2024-03-08T06:30:10;0.80;99.90
7204;DHT22;3643;52.460;13.322;2024-03-08T06:32:39;1.20;99.90
7204;DHT22;3643;52.460;13.322;2024-03-08T06:35:09;1.90;99.90
7204;DHT22;3643;52.460;13.322;2024-03-08T06:37:38;2.70;99.90
7204;DHT22;3643;52.460;13.322;2024-03-08T06:40:08;3.50;99.90
7204;DHT22;3643;52.460;13.322;2024-03-08T06:42:40;4.10;99.90
7204;DHT22;3643;52.460;13.322;2024-03-08T06:45:09;4.90;99.90
7204;DHT22;3643;52.460;13.322;2024-03-08T06:47:37;5.80;99.90
7204;DHT22;3643;52.460;13.322;2024-03-08T06:50:06;6.70;99.90
7204;DHT22;3643;52.460;13.322;2024-03-08T06:52:34;7.30;99.90
7204;DHT22;3643;52.460;13.322;2024-03-08T06:55:03;8.10;99.90
7204;DHT22;3643;52.460;13.322;2024-03-08T06:57:33;8.50;99.90
7204;DHT22;3643;52.460;13.322;2024-03-08T07:00:01;8.90;99.90
7204;DHT22;3643;52.460;13.322;2024-03-08T07:02:29;9.30;99.90
7204;DHT22;3643;52.460;13.322;2024-03-08T07:04:59;9.80;99.90
7204;DHT22;3643;52.460;13.322;2024-03-08T07:07:28;10.00;99.90
7204;DHT22;3643;52.460;13.322;2024-03-08T07:09:57;10.00;99.90
7204;DHT22;3643;52.460;13.322;2024-03-08T07:12:25;10.40;99.90
7204;DHT22;3643;52.460;13.322;2024-03-08T07:14:54;10.30;99.80
7204;DHT22;3643;52.460;13.322;2024-03-08T07:17:22;10.80;99.60
7204;DHT22;3643;52.460;13.322;2024-03-08T07:19:51;11.00;98.10
7204;DHT22;3643;52.460;13.322;2024-03-08T07:22:20;11.10;98.90
7204;DHT22;3643;52.460;13.322;2024-03-08T07:24:50;11.30;98.90
7204;DHT22;3643;52.460;13.322;2024-03-08T07:27:31;11.00;97.90
7204;DHT22;3643;52.460;13.322;2024-03-08T07:30:02;10.70;98.10
7204;DHT22;3643;52.460;13.322;2024-03-08T07:32:34;10.70;98.40
7204;DHT22;3643;52.460;13.322;2024-03-08T07:35:03;10.90;98.00
7204;DHT22;3643;52.460;13.322;2024-03-08T07:37:31;11.10;97.40
7204;DHT22;3643;52.460;13.322;2024-03-08T07:39:59;10.30;97.90
7204;DHT22;3643;52.460;13.322;2024-03-08T07:42:27;9.80;98.60
7204;DHT22;3643;52.460;13.322;2024-03-08T07:44:56;8.60;99.00
7204;DHT22;3643;52.460;13.322;2024-03-08T07:47:25;7.60;99.90
7204;DHT22;3643;52.460;13.322;2024-03-08T07:49:54;6.60;99.90
7204;DHT22;3643;52.460;13.322;2024-03-08T07:52:22;5.90;99.90
7204;DHT22;3643;52.460;13.322;2024-03-08T07:54:50;5.50;99.90
7204;DHT22;3643;52.460;13.322;2024-03-08T07:57:18;5.10;99.90
7204;DHT22;3643;52.460;13.322;2024-03-08T07:59:47;4.80;99.90
7204;DHT22;3643;52.460;13.322;2024-03-08T08:02:16;4.40;99.90
7204;DHT22;3643;52.460;13.322;2024-03-08T08:04:45;4.10;99.90
7204;DHT22;3643;52.460;13.322;2024-03-08T08:07:13;3.90;99.90
7204;DHT22;3643;52.460;13.322;2024-03-08T08:09:41;3.80;99.90
7204;DHT22;3643;52.460;13.322;2024-03-08T08:12:09;3.80;99.90
7204;DHT22;3643;52.460;13.322;2024-03-08T08:14:38;3.80;99.90
7204;DHT22;3643;52.460;13.322;2024-03-08T08:17:07;3.90;99.90
7204;DHT22;3643;52.460;13.322;2024-03-08T08:19:36;3.90;99.90
7204;DHT22;3643;52.460;13.322;2024-03-08T08:22:06;4.00;99.90
7204;DHT22;3643;52.460;13.322;2024-03-08T08:24:35;4.00;99.90
7204;DHT22;3643;52.460;13.322;2024-03-08T08:27:04;4.00;99.90
7204;DHT22;3643;52.460;13.322;2024-03-08T08:29:33;4.40;99.90
7204;DHT22;3643;52.460;13.322;2024-03-08T08:32:02;4.20;99.90
7204;DHT22;3643;52.460;13.322;2024-03-08T08:34:30;4.20;99.90
7204;DHT22;3643;52.460;13.322;2024-03-08T08:36:59;4.20;99.90
7204;DHT22;3643;52.460;13.322;2024-03-08T08:39:28;4.20;99.90
7204;DHT22;3643;52.460;13.322;2024-03-08T08:41:56;4.20;99.90
7204;DHT22;3643;52.460;13.322;2024-03-08T08:44:25;4.20;99.90
7204;DHT22;3643;52.460;13.322;2024-03-08T08:46:54;4.20;99.90
7204;DHT22;3643;52.460;13.322;2024-03-08T08:49:32;4.40;99.90
7204;DHT22;3643;52.460;13.322;2024-03-08T08:52:00;4.40;99.90
7204;DHT22;3643;52.460;13.322;2024-03-08T08:54:43;4.50;99.90
7204;DHT22;3643;52.460;13.322;2024-03-08T08:57:15;4.60;99.90
7204;DHT22;3643;52.460;13.322;2024-03-08T08:59:44;4.60;99.90
7204;DHT22;3643;52.460;13.322;2024-03-08T09:02:12;4.70;99.90
7204;DHT22;3643;52.460;13.322;2024-03-08T09:04:44;4.70;99.90
7204;DHT22;3643;52.460;13.322;2024-03-08T09:07:12;4.80;99.90
7204;DHT22;3643;52.460;13.322;2024-03-08T09:09:43;4.90;99.90
7204;DHT22;3643;52.460;13.322;2024-03-08T09:12:11;4.90;99.90
7204;DHT22;3643;52.460;13.322;2024-03-08T09:14:40;5.00;99.90
7204;DHT22;3643;52.460;13.322;2024-03-08T09:17:08;5.10;99.90
7204;DHT22;3643;52.460;13.322;2024-03-08T09:19:36;5.20;99.90
7204;DHT22;3643;52.460;13.322;2024-03-08T09:22:04;5.30;99.90
7204;DHT22;3643;52.460;13.322;2024-03-08T09:24:32;5.40;99.90
7204;DHT22;3643;52.460;13.322;2024-03-08T09:27:01;5.40;99.90
7204;DHT22;3643;52.460;13.322;2024-03-08T09:29:30;5.50;99.90
7204;DHT22;3643;52.460;13.322;2024-03-08T09:31:58;5.40;99.90
7204;DHT22;3643;52.460;13.322;2024-03-08T09:34:26;5.50;99.90
7204;DHT22;3643;52.460;13.322;2024-03-08T09:37:03;5.90;99.90
7204;DHT22;3643;52.460;13.322;2024-03-08T09:39:31;5.60;99.90
7204;DHT22;3643;52.460;13.322;2024-03-08T09:42:02;5.70;99.90
7204;DHT22;3643;52.460;13.322;2024-03-08T09:44:30;5.70;99.90
7204;DHT22;3643;52.460;13.322;2024-03-08T09:46:59;5.80;99.90
7204;DHT22;3643;52.460;13.322;2024-03-08T09:49:29;5.90;99.90
7204;DHT22;3643;52.460;13.322;2024-03-08T09:51:57;5.80;99.90
7204;DHT22;3643;52.460;13.322;2024-03-08T09:54:25;5.80;99.90
7204;DHT22;3643;52.460;13.322;2024-03-08T09:56:54;5.90;99.90
7204;DHT22;3643;52.460;13.322;2024-03-08T09:59:23;5.90;99.90
7204;DHT22;3643;52.460;13.322;2024-03-08T10:02:13;6.00;99.90
7204;DHT22;3643;52.460;13.322;2024-03-08T10:04:43;6.10;99.90
7204;DHT22;3643;52.460;13.322;2024-03-08T10:07:13;5.80;99.90
7204;DHT22;3643;52.460;13.322;2024-03-08T10:09:41;6.10;99.90
7204;DHT22;3643;52.460;13.322;2024-03-08T10:12:15;6.10;99.90
7204;DHT22;3643;52.460;13.322;2024-03-08T10:14:45;6.20;99.90
7204;DHT22;3643;52.460;13.322;2024-03-08T10:17:14;6.30;99.90
7204;DHT22;3643;52.460;13.322;2024-03-08T10:19:50;6.40;99.90
7204;DHT22;3643;52.460;13.322;2024-03-08T10:22:19;6.50;99.90
7204;DHT22;3643;52.460;13.322;2024-03-08T10:24:47;6.50;99.90
7204;DHT22;3643;52.460;13.322;2024-03-08T10:27:16;6.50;99.90
7204;DHT22;3643;52.460;13.322;2024-03-08T10:29:47;6.50;99.90
7204;DHT22;3643;52.460;13.322;2024-03-08T10:32:18;6.50;99.90
7204;DHT22;3643;52.460;13.322;2024-03-08T10:34:47;6.60;99.90
7204;DHT22;3643;52.460;13.322;2024-03-08T10:37:21;6.60;99.60
7204;DHT22;3643;52.460;13.322;2024-03-08T10:40:02;6.50;99.50
7204;DHT22;3643;52.460;13.322;2024-03-08T10:42:40;6.60;99.70
7204;DHT22;3643;52.460;13.322;2024-03-08T10:45:15;6.70;99.90
7204;DHT22;3643;52.460;13.322;2024-03-08T10:47:46;6.80;99.80
7204;DHT22;3643;52.460;13.322;2024-03-08T10:50:18;6.90;99.50
7204;DHT22;3643;52.460;13.322;2024-03-08T10:52:50;6.80;98.70
7204;DHT22;3643;52.460;13.322;2024-03-08T10:55:19;6.70;98.60
7204;DHT22;3643;52.460;13.322;2024-03-08T10:57:47;6.80;99.00
7204;DHT22;3643;52.460;13.322;2024-03-08T11:00:17;6.90;99.30
7204;DHT22;3643;52.460;13.322;2024-03-08T11:02:54;6.90;99.50
7204;DHT22;3643;52.460;13.322;2024-03-08T11:05:32;6.90;99.40
7204;DHT22;3643;52.460;13.322;2024-03-08T11:08:02;7.00;99.50
7204;DHT22;3643;52.460;13.322;2024-03-08T11:10:31;7.10;99.50
7204;DHT22;3643;52.460;13.322;2024-03-08T11:13:00;7.30;99.30
7204;DHT22;3643;52.460;13.322;2024-03-08T11:15:30;7.20;98.70
7204;DHT22;3643;52.460;13.322;2024-03-08T11:17:59;7.30;99.00
7204;DHT22;3643;52.460;13.322;2024-03-08T11:20:28;7.40;99.10
7204;DHT22;3643;52.460;13.322;2024-03-08T11:23:00;7.50;98.80
7204;DHT22;3643;52.460;13.322;2024-03-08T11:25:33;7.50;98.60
7204;DHT22;3643;52.460;13.322;2024-03-08T11:28:08;7.60;97.60
7204;DHT22;3643;52.460;13.322;2024-03-08T11:30:37;7.50;97.90
7204;DHT22;3643;52.460;13.322;2024-03-08T11:33:11;7.50;97.90
7204;DHT22;3643;52.460;13.322;2024-03-08T11:35:42;7.60;97.80
7204;DHT22;3643;52.460;13.322;2024-03-08T11:38:13;7.60;97.40
7204;DHT22;3643;52.460;13.322;2024-03-08T11:40:46;7.60;97.50
7204;DHT22;3643;52.460;13.322;2024-03-08T11:43:16;7.70;97.30
7204;DHT22;3643;52.460;13.322;2024-03-08T11:45:47;7.70;97.10
7204;DHT22;3643;52.460;13.322;2024-03-08T11:48:15;7.70;97.10
7204;DHT22;3643;52.460;13.322;2024-03-08T11:50:43;7.70;97.20
7204;DHT22;3643;52.460;13.322;2024-03-08T11:53:11;7.80;97.40
7204;DHT22;3643;52.460;13.322;2024-03-08T11:55:40;7.90;97.80
7204;DHT22;3643;52.460;13.322;2024-03-08T11:58:09;8.10;97.60
7204;DHT22;3643;52.460;13.322;2024-03-08T12:00:39;8.10;97.10
7204;DHT22;3643;52.460;13.322;2024-03-08T12:03:09;8.10;97.30
7204;DHT22;3643;52.460;13.322;2024-03-08T12:05:37;8.10;97.40
7204;DHT22;3643;52.460;13.322;2024-03-08T12:08:05;8.10;97.10
7204;DHT22;3643;52.460;13.322;2024-03-08T12:10:36;8.10;96.70
7204;DHT22;3643;52.460;13.322;2024-03-08T12:13:04;8.10;96.60
7204;DHT22;3643;52.460;13.322;2024-03-08T12:15:39;8.00;96.50
7204;DHT22;3643;52.460;13.322;2024-03-08T12:18:09;8.00;96.90
7204;DHT22;3643;52.460;13.322;2024-03-08T12:23:14;8.70;96.90
7204;DHT22;3643;52.460;13.322;2024-03-08T12:25:43;8.20;96.60
7204;DHT22;3643;52.460;13.322;2024-03-08T12:28:12;8.10;96.50
7204;DHT22;3643;52.460;13.322;2024-03-08T12:30:49;8.20;95.80
7204;DHT22;3643;52.460;13.322;2024-03-08T12:33:21;8.20;95.70
7204;DHT22;3643;52.460;13.322;2024-03-08T12:35:53;8.20;95.80
7204;DHT22;3643;52.460;13.322;2024-03-08T12:38:23;8.20;96.10
7204;DHT22;3643;52.460;13.322;2024-03-08T12:40:55;8.20;95.80
7204;DHT22;3643;52.460;13.322;2024-03-08T12:43:24;8.40;95.70
7204;DHT22;3643;52.460;13.322;2024-03-08T12:45:52;8.30;95.40
7204;DHT22;3643;52.460;13.322;2024-03-08T12:48:23;8.30;95.30
7204;DHT22;3643;52.460;13.322;2024-03-08T12:50:51;8.30;95.30
7204;DHT22;3643;52.460;13.322;2024-03-08T12:53:22;8.30;95.30
7204;DHT22;3643;52.460;13.322;2024-03-08T12:55:52;8.30;95.20
7204;DHT22;3643;52.460;13.322;2024-03-08T12:58:19;8.30;95.30
7204;DHT22;3643;52.460;13.322;2024-03-08T13:00:48;8.30;95.50
7204;DHT22;3643;52.460;13.322;2024-03-08T13:03:20;8.40;95.70
7204;DHT22;3643;52.460;13.322;2024-03-08T13:05:51;8.50;96.10
7204;DHT22;3643;52.460;13.322;2024-03-08T13:08:19;8.50;96.10
7204;DHT22;3643;52.460;13.322;2024-03-08T13:10:49;8.50;95.90
7204;DHT22;3643;52.460;13.322;2024-03-08T13:13:18;8.60;96.10
7204;DHT22;3643;52.460;13.322;2024-03-08T13:15:46;8.50;96.00
7204;DHT22;3643;52.460;13.322;2024-03-08T13:18:15;8.50;96.00
7204;DHT22;3643;52.460;13.322;2024-03-08T13:20:44;8.50;96.10
7204;DHT22;3643;52.460;13.322;2024-03-08T13:23:17;8.50;96.60
7204;DHT22;3643;52.460;13.322;2024-03-08T13:25:45;8.10;96.80
7204;DHT22;3643;52.460;13.322;2024-03-08T13:28:14;8.50;97.20
7204;DHT22;3643;52.460;13.322;2024-03-08T13:30:43;8.60;97.40
7204;DHT22;3643;52.460;13.322;2024-03-08T13:33:12;8.60;96.90
7204;DHT22;3643;52.460;13.322;2024-03-08T13:35:41;8.60;96.70
7204;DHT22;3643;52.460;13.322;2024-03-08T13:38:09;8.60;96.80
7204;DHT22;3643;52.460;13.322;2024-03-08T13:40:41;8.60;96.80
7204;DHT22;3643;52.460;13.322;2024-03-08T13:43:10;8.60;97.00
7204;DHT22;3643;52.460;13.322;2024-03-08T13:45:39;8.70;96.90
7204;DHT22;3643;52.460;13.322;2024-03-08T13:48:07;8.70;97.00
7204;DHT22;3643;52.460;13.322;2024-03-08T13:50:39;8.70;96.90
7204;DHT22;3643;52.460;13.322;2024-03-08T13:53:07;8.70;97.20
7204;DHT22;3643;52.460;13.322;2024-03-08T13:55:37;8.80;97.00
7204;DHT22;3643;52.460;13.322;2024-03-08T13:58:06;8.80;96.90
7204;DHT22;3643;52.460;13.322;2024-03-08T14:00:36;8.90;96.80
7204;DHT22;3643;52.460;13.322;2024-03-08T14:03:05;8.90;97.00
7204;DHT22;3643;52.460;13.322;2024-03-08T14:05:33;8.90;97.00
7204;DHT22;3643;52.460;13.322;2024-03-08T14:08:02;8.80;97.00
7204;DHT22;3643;52.460;13.322;2024-03-08T14:10:31;8.70;96.30
7204;DHT22;3643;52.460;13.322;2024-03-08T14:12:59;8.70;96.30
7204;DHT22;3643;52.460;13.322;2024-03-08T14:15:29;8.80;96.20
7204;DHT22;3643;52.460;13.322;2024-03-08T14:17:57;8.90;96.20
7204;DHT22;3643;52.460;13.322;2024-03-08T14:20:26;8.90;96.20
7204;DHT22;3643;52.460;13.322;2024-03-08T14:22:54;8.90;96.20
7204;DHT22;3643;52.460;13.322;2024-03-08T14:25:24;9.00;96.20
7204;DHT22;3643;52.460;13.322;2024-03-08T14:27:53;8.90;96.30
7204;DHT22;3643;52.460;13.322;2024-03-08T14:30:25;9.00;96.30
7204;DHT22;3643;52.460;13.322;2024-03-08T14:33:07;9.00;96.10
7204;DHT22;3643;52.460;13.322;2024-03-08T14:35:36;8.90;96.00
7204;DHT22;3643;52.460;13.322;2024-03-08T14:38:05;9.00;96.10
7204;DHT22;3643;52.460;13.322;2024-03-08T14:40:35;8.90;95.80
7204;DHT22;3643;52.460;13.322;2024-03-08T14:43:05;9.00;95.80
7204;DHT22;3643;52.460;13.322;2024-03-08T14:45:33;9.00;96.00
7204;DHT22;3643;52.460;13.322;2024-03-08T14:48:02;9.00;96.10
7204;DHT22;3643;52.460;13.322;2024-03-08T14:50:33;9.00;96.10
7204;DHT22;3643;52.460;13.322;2024-03-08T14:53:04;9.00;96.00
7204;DHT22;3643;52.460;13.322;2024-03-08T14:55:33;9.00;96.10
7204;DHT22;3643;52.460;13.322;2024-03-08T14:58:02;9.10;96.20
7204;DHT22;3643;52.460;13.322;2024-03-08T15:00:31;9.10;95.70
7204;DHT22;3643;52.460;13.322;2024-03-08T15:03:02;9.10;95.80
7204;DHT22;3643;52.460;13.322;2024-03-08T15:05:33;9.00;95.80
7204;DHT22;3643;52.460;13.322;2024-03-08T15:08:06;9.00;96.10
7204;DHT22;3643;52.460;13.322;2024-03-08T15:10:39;8.90;96.20
7204;DHT22;3643;52.460;13.322;2024-03-08T15:13:09;8.90;96.30
7204;DHT22;3643;52.460;13.322;2024-03-08T15:15:49;8.90;96.40
7204;DHT22;3643;52.460;13.322;2024-03-08T15:18:23;9.00;96.40
7204;DHT22;3643;52.460;13.322;2024-03-08T15:20:56;9.00;96.10
7204;DHT22;3643;52.460;13.322;2024-03-08T15:23:24;9.00;96.10
7204;DHT22;3643;52.460;13.322;2024-03-08T15:25:52;9.00;96.20
7204;DHT22;3643;52.460;13.322;2024-03-08T15:28:20;9.00;96.00
7204;DHT22;3643;52.460;13.322;2024-03-08T15:30:54;9.00;96.00
7204;DHT22;3643;52.460;13.322;2024-03-08T15:33:32;8.90;95.90
7204;DHT22;3643;52.460;13.322;2024-03-08T15:36:01;9.00;95.90
7204;DHT22;3643;52.460;13.322;2024-03-08T15:38:35;8.90;96.10
7204;DHT22;3643;52.460;13.322;2024-03-08T15:41:04;8.90;96.10
7204;DHT22;3643;52.460;13.322;2024-03-08T15:43:37;8.80;96.10
7204;DHT22;3643;52.460;13.322;2024-03-08T15:46:06;8.80;96.20
7204;DHT22;3643;52.460;13.322;2024-03-08T15:48:36;8.80;96.40
7204;DHT22;3643;52.460;13.322;2024-03-08T15:51:06;8.70;96.40
7204;DHT22;3643;52.460;13.322;2024-03-08T15:53:37;8.70;96.50
7204;DHT22;3643;52.460;13.322;2024-03-08T15:56:06;8.70;96.70
7204;DHT22;3643;52.460;13.322;2024-03-08T15:58:35;8.60;96.70
7204;DHT22;3643;52.460;13.322;2024-03-08T16:01:04;8.60;96.80
7204;DHT22;3643;52.460;13.322;2024-03-08T16:03:33;8.60;96.90
7204;DHT22;3643;52.460;13.322;2024-03-08T16:06:02;8.50;97.00
7204;DHT22;3643;52.460;13.322;2024-03-08T16:08:32;8.50;97.20
7204;DHT22;3643;52.460;13.322;2024-03-08T16:11:03;8.50;97.10
7204;DHT22;3643;52.460;13.322;2024-03-08T16:13:34;8.50;97.30
7204;DHT22;3643;52.460;13.322;2024-03-08T16:16:05;8.40;97.20
7204;DHT22;3643;52.460;13.322;2024-03-08T16:18:33;8.40;97.20